createdAt,value
2018-08-18T00:02:03.366Z,63.20
2018-08-18T00:04:33.237Z,63.60
2018-08-18T00:07:02.595Z,63.90
2018-08-18T00:09:31.343Z,64.20
2018-08-18T00:11:59.585Z,64.20
2018-08-18T00:14:27.894Z,64.40
2018-08-18T00:16:56.581Z,64.10
2018-08-18T00:19:26.396Z,64.40
2018-08-18T00:21:54.708Z,64.50
2018-08-18T00:24:22.918Z,64.50
2018-08-18T00:26:51.209Z,64.70
2018-08-18T00:29:19.435Z,64.70
2018-08-18T00:31:48.663Z,64.90
2018-08-18T00:34:16.950Z,65.30
2018-08-18T00:36:45.163Z,65.00
2018-08-18T00:39:13.948Z,65.10
2018-08-18T00:41:42.169Z,65.40
2018-08-18T00:44:11.731Z,65.40
2018-08-18T00:46:39.953Z,65.50
2018-08-18T00:49:08.209Z,65.50
2018-08-18T00:51:42.708Z,65.50
2018-08-18T00:54:10.953Z,65.50
2018-08-18T00:56:40.946Z,65.70
2018-08-18T00:59:09.179Z,66.70
2018-08-18T01:01:37.465Z,66.40
2018-08-18T01:04:08.710Z,66.20
2018-08-18T01:06:41.085Z,66.30
2018-08-18T01:09:10.893Z,66.40
2018-08-18T01:11:39.291Z,66.60
2018-08-18T01:14:14.117Z,67.20
2018-08-18T01:16:47.714Z,66.60
2018-08-18T01:19:16.085Z,66.40
2018-08-18T01:21:49.778Z,66.70
2018-08-18T01:24:18.026Z,66.60
2018-08-18T01:26:46.276Z,66.80
2018-08-18T01:29:16.678Z,66.60
2018-08-18T01:31:45.295Z,67.00
2018-08-18T01:34:13.555Z,66.90
2018-08-18T01:36:41.789Z,66.80
2018-08-18T01:39:11.965Z,66.80
2018-08-18T01:41:40.190Z,67.50
2018-08-18T01:44:14.941Z,67.70
2018-08-18T01:46:43.972Z,66.80
2018-08-18T01:49:35.754Z,67.60
2018-08-18T01:52:10.961Z,67.40
2018-08-18T01:54:39.193Z,67.50
2018-08-18T01:57:08.188Z,67.80
2018-08-18T01:59:37.280Z,67.90
2018-08-18T02:02:09.649Z,67.80
2018-08-18T02:04:37.892Z,67.90
2018-08-18T02:07:17.156Z,68.00
2018-08-18T02:09:45.474Z,68.00
2018-08-18T02:12:13.718Z,68.20
2018-08-18T02:14:41.941Z,68.30
2018-08-18T02:17:18.364Z,68.50
2018-08-18T02:19:46.678Z,68.30
2018-08-18T02:22:14.914Z,68.20
2018-08-18T02:24:43.797Z,68.20
2018-08-18T02:27:12.219Z,68.90
2018-08-18T02:29:40.491Z,68.50
2018-08-18T02:32:24.378Z,68.60
2018-08-18T02:34:52.692Z,68.50
2018-08-18T02:37:20.923Z,68.50
2018-08-18T02:39:49.186Z,68.60
2018-08-18T02:42:17.429Z,68.50
2018-08-18T02:44:45.674Z,68.60
2018-08-18T02:47:13.929Z,68.50
2018-08-18T02:49:48.052Z,68.40
2018-08-18T02:52:21.627Z,68.40
2018-08-18T02:54:59.553Z,68.50
2018-08-18T02:57:29.891Z,68.60
2018-08-18T03:00:00.743Z,68.50
2018-08-18T03:02:28.973Z,68.50
2018-08-18T03:04:57.233Z,68.50
2018-08-18T03:07:25.862Z,68.80
2018-08-18T03:09:54.302Z,68.80
2018-08-18T03:12:24.685Z,68.80
2018-08-18T03:14:52.924Z,68.70
2018-08-18T03:17:21.158Z,68.70
2018-08-18T03:19:49.403Z,68.90
2018-08-18T03:22:17.714Z,69.30
2018-08-18T03:24:45.977Z,69.00
2018-08-18T03:27:14.222Z,69.20
2018-08-18T03:29:47.664Z,69.30
2018-08-18T03:32:15.909Z,69.30
2018-08-18T03:34:44.134Z,69.70
2018-08-18T03:37:25.222Z,69.30
2018-08-18T03:39:53.575Z,69.40
2018-08-18T03:42:23.282Z,69.80
2018-08-18T03:44:54.497Z,70.00
2018-08-18T03:47:22.756Z,70.10
2018-08-18T03:49:50.977Z,69.90
2018-08-18T03:52:19.258Z,69.90
2018-08-18T03:54:47.441Z,70.10
2018-08-18T03:57:15.670Z,70.10
2018-08-18T03:59:43.898Z,70.00
2018-08-18T04:02:12.129Z,70.20
2018-08-18T04:04:40.354Z,70.40
2018-08-18T04:07:09.274Z,70.50
2018-08-18T04:09:38.605Z,70.40
2018-08-18T04:12:09.516Z,70.60
2018-08-18T04:14:43.702Z,70.50
2018-08-18T04:17:24.273Z,70.40
2018-08-18T04:19:52.519Z,70.40
2018-08-18T04:22:22.577Z,70.30
2018-08-18T04:24:50.846Z,70.50
2018-08-18T04:27:40.282Z,70.80
2018-08-18T04:30:11.683Z,70.80
2018-08-18T04:32:51.193Z,70.70
2018-08-18T04:35:28.015Z,70.50
2018-08-18T04:37:57.192Z,70.50
2018-08-18T04:40:26.028Z,70.50
2018-08-18T04:42:56.656Z,70.60
2018-08-18T04:45:24.882Z,70.70
2018-08-18T04:47:53.131Z,71.20
2018-08-18T04:50:22.429Z,70.50
2018-08-18T04:52:53.000Z,70.50
2018-08-18T04:55:21.545Z,70.50
2018-08-18T04:57:49.832Z,70.30
2018-08-18T05:00:18.070Z,70.70
2018-08-18T05:02:51.645Z,70.60
2018-08-18T05:05:22.590Z,70.60
2018-08-18T05:07:50.936Z,70.80
2018-08-18T05:10:20.555Z,70.90
2018-08-18T05:12:48.804Z,70.90
2018-08-18T05:15:18.711Z,70.90
2018-08-18T05:17:48.063Z,71.10
2018-08-18T05:20:22.075Z,70.90
2018-08-18T05:22:50.356Z,70.90
2018-08-18T05:25:20.901Z,71.30
2018-08-18T05:27:49.125Z,71.40
2018-08-18T05:30:17.813Z,71.70
2018-08-18T05:32:46.047Z,72.10
2018-08-18T05:35:14.306Z,72.30
2018-08-18T05:37:42.529Z,72.70
2018-08-18T05:40:10.769Z,72.70
2018-08-18T05:42:39.001Z,71.50
2018-08-18T05:45:22.167Z,71.60
2018-08-18T05:47:51.542Z,72.00
2018-08-18T05:50:20.219Z,71.80
2018-08-18T05:52:48.453Z,71.30
2018-08-18T05:55:16.704Z,69.40
2018-08-18T05:57:45.002Z,66.70
2018-08-18T06:00:20.112Z,65.40
2018-08-18T06:02:53.637Z,63.90
2018-08-18T06:05:21.878Z,62.10
2018-08-18T06:07:50.123Z,60.70
2018-08-18T06:10:18.369Z,60.50
2018-08-18T06:12:46.603Z,59.30
2018-08-18T06:15:14.869Z,59.30
2018-08-18T06:17:43.128Z,58.50
2018-08-18T06:20:11.407Z,58.20
2018-08-18T06:22:40.391Z,58.30
2018-08-18T06:25:09.220Z,57.60
2018-08-18T06:27:37.508Z,57.00
2018-08-18T06:30:07.216Z,56.60
2018-08-18T06:32:35.470Z,56.60
2018-08-18T06:35:03.956Z,56.60
2018-08-18T06:37:32.169Z,57.00
2018-08-18T06:40:01.008Z,56.90
2018-08-18T06:42:42.627Z,56.90
2018-08-18T06:45:14.166Z,56.70
2018-08-18T06:47:43.862Z,57.10
2018-08-18T06:50:14.334Z,56.60
2018-08-18T06:52:43.436Z,57.50
2018-08-18T06:55:17.275Z,57.50
2018-08-18T06:57:50.695Z,58.20
2018-08-18T07:00:20.861Z,58.30
2018-08-18T07:02:49.116Z,58.70
2018-08-18T07:05:18.642Z,58.40
2018-08-18T07:07:47.830Z,59.20
2018-08-18T07:10:37.292Z,59.40
2018-08-18T07:13:08.874Z,59.20
2018-08-18T07:15:38.615Z,59.40
2018-08-18T07:18:08.726Z,59.90
2018-08-18T07:20:37.042Z,60.80
2018-08-18T07:23:05.571Z,59.80
2018-08-18T07:25:36.528Z,59.10
2018-08-18T07:29:39.042Z,58.90
2018-08-18T07:32:07.383Z,59.90
2018-08-18T07:34:35.768Z,60.60
2018-08-18T07:37:04.314Z,62.20
2018-08-18T07:39:33.142Z,63.40
2018-08-18T07:42:01.406Z,63.10
2018-08-18T07:44:29.809Z,63.20
2018-08-18T07:46:58.097Z,62.90
2018-08-18T07:49:26.363Z,61.90
2018-08-18T07:52:01.309Z,60.70
2018-08-18T07:54:29.639Z,61.60
2018-08-18T07:56:58.108Z,61.50
2018-08-18T07:59:26.366Z,60.10
2018-08-18T08:04:50.238Z,60.50
2018-08-18T08:07:21.552Z,60.20
2018-08-18T08:09:52.776Z,60.70
2018-08-18T08:12:21.594Z,60.00
2018-08-18T08:14:53.935Z,59.80
2018-08-18T08:17:23.883Z,59.50
2018-08-18T08:20:00.123Z,59.30
2018-08-18T08:22:34.662Z,59.10
2018-08-18T08:27:41.869Z,59.00
2018-08-18T08:30:14.769Z,59.40
2018-08-18T08:32:56.236Z,59.70
2018-08-18T08:35:33.778Z,59.50
2018-08-18T08:38:11.050Z,59.80
2018-08-18T08:41:13.538Z,60.40
2018-08-18T08:43:43.126Z,60.90
2018-08-18T08:46:13.794Z,59.80
2018-08-18T08:48:45.011Z,60.00
2018-08-18T08:51:15.458Z,60.40
2018-08-18T08:53:45.643Z,60.70
2018-08-18T08:56:14.688Z,60.10
2018-08-18T08:58:50.920Z,60.50
2018-08-18T09:03:59.234Z,60.70
2018-08-18T09:06:27.556Z,60.50
2018-08-18T09:08:59.199Z,59.80
2018-08-18T09:11:29.078Z,59.10
2018-08-18T09:14:03.498Z,59.20
2018-08-18T09:16:33.350Z,59.50
2018-08-18T09:19:01.635Z,59.90
2018-08-18T09:21:37.597Z,60.20
2018-08-18T09:24:06.270Z,60.60
2018-08-18T09:26:38.847Z,60.60
2018-08-18T09:29:07.164Z,61.00
2018-08-18T09:31:35.470Z,61.00
2018-08-18T09:34:03.750Z,61.80
2018-08-18T09:36:32.073Z,60.60
2018-08-18T09:39:00.343Z,60.10
2018-08-18T09:41:28.705Z,60.20
2018-08-18T09:43:57.035Z,60.00
2018-08-18T09:46:27.390Z,60.10
2018-08-18T09:48:56.616Z,59.90
2018-08-18T09:51:24.910Z,59.90
2018-08-18T09:53:53.193Z,59.90
2018-08-18T09:56:21.495Z,60.30
2018-08-18T09:58:49.758Z,60.60
2018-08-18T10:01:19.433Z,60.70
2018-08-18T10:03:55.007Z,60.90
2018-08-18T10:06:45.769Z,60.90
2018-08-18T10:09:29.613Z,60.70
2018-08-18T10:12:07.455Z,60.50
2018-08-18T10:14:35.821Z,60.70
2018-08-18T10:19:57.423Z,61.30
2018-08-18T10:22:33.608Z,61.10
2018-08-18T10:25:09.828Z,61.40
2018-08-18T10:27:40.309Z,61.60
2018-08-18T10:30:10.725Z,61.50
2018-08-18T10:32:49.787Z,61.10
2018-08-18T10:42:26.195Z,61.00
2018-08-18T10:48:23.659Z,61.40
2018-08-18T10:53:55.638Z,61.90
2018-08-18T12:02:17.614Z,61.80
2018-08-18T12:18:28.243Z,62.30
2018-08-18T12:20:59.991Z,61.40
2018-08-18T12:23:30.294Z,61.20
2018-08-18T12:26:09.479Z,59.70
2018-08-18T12:28:44.097Z,59.80
2018-08-18T12:31:20.572Z,59.30
2018-08-18T12:33:59.560Z,59.30
2018-08-18T12:37:49.181Z,59.30
2018-08-18T12:40:37.324Z,58.30
2018-08-18T12:43:06.455Z,59.20
2018-08-18T12:45:41.804Z,59.00
2018-08-18T12:48:10.916Z,58.90
2018-08-18T12:50:39.375Z,58.50
2018-08-18T12:53:07.777Z,57.70
2018-08-18T12:55:36.155Z,58.20
2018-08-18T12:58:05.011Z,58.40
2018-08-18T13:00:33.409Z,58.60
2018-08-18T13:03:04.201Z,58.10
2018-08-18T13:05:33.087Z,57.70
2018-08-18T13:08:02.128Z,57.90
2018-08-18T13:10:32.777Z,58.00
2018-08-18T13:13:02.492Z,57.80
2018-08-18T13:15:31.198Z,58.30
2018-08-18T13:18:00.026Z,59.40
2018-08-18T13:20:28.713Z,58.10
2018-08-18T13:22:58.194Z,57.60
2018-08-18T13:25:31.553Z,58.00
2018-08-18T13:28:07.207Z,57.80
2018-08-18T13:30:40.078Z,57.70
2018-08-18T13:33:09.158Z,57.70
2018-08-18T13:35:47.152Z,57.20
2018-08-18T13:51:07.847Z,58.00
2018-08-18T13:53:44.999Z,58.40
2018-08-18T13:56:22.332Z,58.60
2018-08-18T13:58:52.340Z,58.90
2018-08-18T14:01:30.377Z,58.90
2018-08-18T14:04:00.394Z,58.90
2018-08-18T14:06:29.009Z,59.00
2018-08-18T14:09:00.123Z,58.80
2018-08-18T14:11:31.345Z,58.50
2018-08-18T14:14:04.742Z,58.60
2018-08-18T14:16:34.925Z,58.60
2018-08-18T14:19:03.774Z,58.60
2018-08-18T14:21:32.372Z,58.70
2018-08-18T14:24:06.588Z,58.40
2018-08-18T14:26:35.425Z,59.00
2018-08-18T14:29:04.275Z,59.10
2018-08-18T14:31:32.855Z,58.70
2018-08-18T14:34:01.750Z,58.90
2018-08-18T14:36:30.077Z,58.50
2018-08-18T14:38:58.650Z,58.80
2018-08-18T14:41:43.244Z,58.20
2018-08-18T14:44:12.912Z,58.20
2018-08-18T14:46:42.627Z,58.90
2018-08-18T14:49:11.347Z,57.90
2018-08-18T14:51:39.997Z,57.60
2018-08-18T14:54:09.350Z,57.50
2018-08-18T14:56:37.925Z,57.30
2018-08-18T14:59:06.489Z,57.80
2018-08-18T15:01:35.156Z,57.30
2018-08-18T15:04:03.809Z,57.10
2018-08-18T15:06:32.608Z,56.80
2018-08-18T15:09:01.406Z,57.30
2018-08-18T15:11:29.808Z,56.80
2018-08-18T15:13:58.182Z,57.00
2018-08-18T15:16:26.523Z,57.00
2018-08-18T15:18:54.945Z,57.00
2018-08-18T15:21:23.316Z,57.10
2018-08-18T15:23:51.726Z,57.30
2018-08-18T15:26:20.070Z,58.00
2018-08-18T15:28:48.502Z,58.00
2018-08-18T15:31:16.896Z,58.10
2018-08-18T15:33:45.529Z,58.10
2018-08-18T15:36:26.014Z,58.40
2018-08-18T15:52:41.717Z,58.00
2018-08-18T15:57:48.757Z,58.30
2018-08-18T16:00:34.464Z,57.90
2018-08-18T16:03:03.207Z,57.80
2018-08-18T16:05:34.263Z,57.60
2018-08-18T16:08:09.449Z,57.60
2018-08-18T16:10:37.897Z,57.40
2018-08-18T16:13:06.578Z,57.80
2018-08-18T16:15:35.249Z,57.40
2018-08-18T16:18:04.823Z,57.40
2018-08-18T16:20:33.359Z,57.30
2018-08-18T16:23:03.896Z,57.50
2018-08-18T16:25:40.361Z,57.50
2018-08-18T16:28:12.726Z,57.50
2018-08-18T16:30:41.789Z,58.00
2018-08-18T16:33:20.052Z,57.20
2018-08-18T16:35:50.827Z,57.40
2018-08-18T16:38:19.367Z,57.20
2018-08-18T16:40:47.842Z,57.20
2018-08-18T16:43:16.374Z,56.60
2018-08-18T16:45:44.717Z,57.00
2018-08-18T16:48:13.774Z,57.20
2018-08-18T16:50:44.217Z,57.20
2018-08-18T16:53:16.342Z,57.00
2018-08-18T16:55:46.305Z,56.80
2018-08-18T16:58:14.677Z,56.90
2018-08-18T17:03:52.457Z,56.80
2018-08-18T17:06:30.484Z,56.70
2018-08-18T17:09:08.395Z,57.00
2018-08-18T17:11:36.842Z,56.80
2018-08-18T17:14:09.491Z,56.90
2018-08-18T17:16:38.106Z,57.10
2018-08-18T17:19:06.545Z,57.00
2018-08-18T17:21:34.927Z,57.00
2018-08-18T17:24:03.478Z,57.40
2018-08-18T17:26:32.002Z,57.40
2018-08-18T17:29:00.506Z,57.60
2018-08-18T17:31:28.966Z,57.70
2018-08-18T17:33:57.639Z,57.80
2018-08-18T17:36:27.289Z,57.90
2018-08-18T17:38:55.764Z,58.00
2018-08-18T17:41:24.262Z,58.20
2018-08-18T17:43:53.033Z,58.40
2018-08-18T17:46:21.527Z,58.80
2018-08-18T17:48:53.839Z,58.80
2018-08-18T17:51:23.072Z,58.70
2018-08-18T17:53:55.094Z,59.00
2018-08-18T17:56:23.624Z,59.00
2018-08-18T17:58:52.079Z,59.10
2018-08-18T18:01:20.609Z,59.30
2018-08-18T18:03:49.173Z,59.30
2018-08-18T18:06:17.668Z,59.50
2018-08-18T18:08:46.165Z,59.60
2018-08-18T18:11:14.611Z,60.00
2018-08-18T18:13:43.234Z,60.00
2018-08-18T18:16:23.041Z,60.00
2018-08-18T18:18:51.452Z,59.90
2018-08-18T18:21:19.859Z,60.00
2018-08-18T18:23:48.375Z,60.00
2018-08-18T18:26:16.817Z,60.20
2018-08-18T18:28:45.334Z,60.10
2018-08-18T18:31:13.886Z,60.10
2018-08-18T18:33:45.193Z,60.10
2018-08-18T18:36:13.595Z,60.40
2018-08-18T18:38:53.588Z,60.40
2018-08-18T18:41:22.151Z,61.30
2018-08-18T18:44:02.378Z,60.70
2018-08-18T18:46:30.972Z,60.40
2018-08-18T18:48:59.557Z,60.70
2018-08-18T18:51:28.159Z,60.80
2018-08-18T18:53:58.577Z,60.70
2018-08-18T18:56:27.114Z,60.70
2018-08-18T18:58:55.709Z,60.70
2018-08-18T19:01:24.175Z,60.80
2018-08-18T19:03:52.976Z,61.10
2018-08-18T19:06:21.641Z,61.30
2018-08-18T19:08:59.193Z,61.50
2018-08-18T19:11:28.164Z,61.30
2018-08-18T19:13:56.824Z,61.40
2018-08-18T19:16:25.872Z,61.50
2018-08-18T19:18:54.729Z,61.90
2018-08-18T19:21:27.956Z,61.80
2018-08-18T19:23:56.467Z,62.00
2018-08-18T19:26:25.403Z,62.20
2018-08-18T19:28:54.049Z,62.40
2018-08-18T19:31:26.745Z,62.60
2018-08-18T19:34:04.160Z,62.60
2018-08-18T19:36:33.344Z,62.60
2018-08-18T19:39:01.835Z,62.60
2018-08-18T19:41:30.313Z,62.40
2018-08-18T19:43:58.820Z,62.50
2018-08-18T19:46:27.267Z,62.50
2018-08-18T19:48:55.778Z,62.40
2018-08-18T19:51:24.275Z,62.30
2018-08-18T19:53:52.903Z,62.30
2018-08-18T19:56:21.480Z,62.30
2018-08-18T19:58:49.976Z,62.20
2018-08-18T20:01:18.564Z,62.70
2018-08-18T20:03:47.088Z,62.30
2018-08-18T20:06:20.649Z,62.50
2018-08-18T20:08:49.259Z,62.50
2018-08-18T20:11:17.936Z,62.50
2018-08-18T20:13:46.356Z,62.50
2018-08-18T20:16:15.031Z,62.40
2018-08-18T20:18:43.653Z,62.50
2018-08-18T20:21:12.269Z,62.70
2018-08-18T20:23:40.768Z,62.80
2018-08-18T20:26:09.264Z,63.00
2018-08-18T20:28:37.752Z,63.00
2018-08-18T20:31:06.949Z,63.10
2018-08-18T20:33:35.457Z,63.30
2018-08-18T20:36:04.115Z,63.10
2018-08-18T20:38:36.800Z,63.20
2018-08-18T20:41:05.234Z,63.30
2018-08-18T20:43:33.819Z,63.40
2018-08-18T20:46:02.302Z,63.50
2018-08-18T20:48:30.961Z,63.80
2018-08-18T20:50:59.394Z,63.70
2018-08-18T20:53:27.971Z,63.80
2018-08-18T20:55:59.111Z,63.70
2018-08-18T20:58:30.832Z,63.70
2018-08-18T21:01:00.472Z,63.60
2018-08-18T21:03:44.368Z,63.60
2018-08-18T21:06:13.848Z,63.80
2018-08-18T21:08:42.410Z,64.00
2018-08-18T21:11:10.848Z,63.60
2018-08-18T21:13:39.778Z,64.10
2018-08-18T21:16:08.750Z,64.20
2018-08-18T21:18:37.263Z,64.10
2018-08-18T21:21:21.276Z,64.00
2018-08-18T21:23:50.071Z,63.90
2018-08-18T21:26:22.182Z,63.90
2018-08-18T21:28:57.741Z,63.80
2018-08-18T21:31:35.351Z,63.80
2018-08-18T21:34:08.663Z,63.80
2018-08-18T21:36:39.962Z,63.90
2018-08-18T21:39:12.484Z,64.00
2018-08-18T21:41:48.128Z,64.00
2018-08-18T21:44:20.522Z,64.20
2018-08-18T21:46:53.138Z,64.30
2018-08-18T21:49:31.188Z,64.40
2018-08-18T21:52:07.916Z,64.40
2018-08-18T21:54:41.949Z,64.40
2018-08-18T22:45:29.717Z,66.00
2018-08-18T22:47:58.093Z,67.20
2018-08-18T22:50:26.618Z,67.50
2018-08-18T22:52:55.290Z,68.40
2018-08-18T22:55:23.700Z,67.70
2018-08-18T22:58:00.611Z,67.90
2018-08-18T23:00:28.981Z,67.70
2018-08-18T23:02:57.330Z,67.70
2018-08-18T23:05:32.102Z,67.40
2018-08-18T23:08:00.411Z,67.60
2018-08-18T23:10:29.775Z,67.70
2018-08-18T23:12:58.272Z,67.80
2018-08-18T23:15:26.755Z,67.50
2018-08-18T23:17:55.238Z,67.60
2018-08-18T23:20:23.750Z,67.50
2018-08-18T23:22:57.829Z,67.60
2018-08-18T23:25:28.420Z,67.60
2018-08-18T23:27:57.138Z,67.90
2018-08-18T23:30:30.961Z,68.10
2018-08-18T23:32:59.985Z,67.80
2018-08-18T23:35:29.114Z,67.60
2018-08-18T23:37:57.655Z,67.60
2018-08-18T23:40:26.258Z,67.60
2018-08-18T23:42:54.644Z,67.60
2018-08-18T23:45:23.475Z,67.70
2018-08-18T23:47:57.590Z,67.40
2018-08-18T23:50:27.210Z,67.40
2018-08-18T23:53:00.260Z,67.60
2018-08-18T23:55:29.542Z,67.90
2018-08-18T23:57:58.312Z,67.80
